Time;durP1;ratioP1;P1;durP2;ratioP2;P2;SDS_P1;SDS_P2;PMS_P1;PMS_P2;Temp;Humidity;BMP_temperature;BMP_pressure;BME280_temperature;BME280_humidity;BME280_pressure;Samples;Min_cycle;Max_cycle;Signal;HPM_P1;HPM_P2
2023/12/11 00:00:32;;;;;;;35.90;19.73;;;;;;;4.87;89.35;99714.47;5071060;28;20188;-71
2023/12/11 00:02:59;;;;;;;37.77;20.23;;;;;;;4.84;89.48;99725.34;5071391;28;20210;-71
2023/12/11 00:05:26;;;;;;;44.97;21.10;;;;;;;4.79;89.45;99718.88;5071293;28;20568;-71
2023/12/11 00:07:52;;;;;;;36.83;20.73;;;;;;;4.78;89.97;99725.13;5071450;28;20207;-71
2023/12/11 00:10:21;;;;;;;41.83;21.40;;;;;;;4.75;90.76;99725.44;5070891;28;20278;-71
2023/12/11 00:12:46;;;;;;;39.80;21.47;;;;;;;4.67;90.58;99720.94;5071310;28;20219;-71
2023/12/11 00:15:13;;;;;;;40.23;22.23;;;;;;;4.70;91.24;99728.50;5070852;28;20690;-71
2023/12/11 00:17:40;;;;;;;43.10;23.23;;;;;;;4.62;91.41;99730.28;5071041;28;20188;-71
2023/12/11 00:20:09;;;;;;;44.93;24.53;;;;;;;4.52;91.43;99732.13;5071451;28;20242;-70
2023/12/11 00:22:36;;;;;;;47.57;25.17;;;;;;;4.35;92.03;99725.94;5071526;28;20637;-70
2023/12/11 00:25:02;;;;;;;44.93;24.00;;;;;;;4.38;93.15;99735.31;5071335;28;20219;-70
2023/12/11 00:27:31;;;;;;;52.23;24.47;;;;;;;4.24;92.62;99736.66;5070909;28;20501;-70
2023/12/11 00:29:59;;;;;;;47.97;23.07;;;;;;;4.14;92.91;99743.81;5071014;28;20192;-71
2023/12/11 00:32:26;;;;;;;49.73;24.97;;;;;;;4.12;93.33;99748.38;5071433;28;20227;-71
2023/12/11 00:34:53;;;;;;;47.00;24.03;;;;;;;3.99;93.24;99733.94;5071188;28;20663;-70
2023/12/11 00:37:20;;;;;;;56.20;25.27;;;;;;;4.08;94.09;99736.50;5071210;28;20450;-71
2023/12/11 00:39:46;;;;;;;51.60;25.40;;;;;;;4.15;94.08;99737.56;5070321;28;20199;-72
2023/12/11 00:42:13;;;;;;;53.03;26.33;;;;;;;4.20;94.74;99727.44;5070970;28;20196;-71
2023/12/11 00:44:41;;;;;;;50.37;24.73;;;;;;;4.24;94.06;99718.25;5070880;28;20195;-71
2023/12/11 00:47:10;;;;;;;46.07;24.60;;;;;;;4.28;93.46;99718.78;5071241;28;20202;-72
2023/12/11 00:49:37;;;;;;;53.93;26.80;;;;;;;4.30;93.49;99719.47;5070618;28;20282;-71
2023/12/11 00:52:04;;;;;;;47.43;24.33;;;;;;;4.31;93.31;99723.75;5070544;28;20230;-72
2023/12/11 00:54:31;;;;;;;49.70;25.37;;;;;;;4.22;92.94;99704.47;5070541;28;20665;-72
2023/12/11 00:56:58;;;;;;;52.87;25.73;;;;;;;4.34;93.09;99713.75;5071513;28;20206;-71
2023/12/11 00:59:25;;;;;;;48.00;25.27;;;;;;;4.33;92.45;99701.56;5074598;28;20442;-71
2023/12/11 01:01:53;;;;;;;49.10;24.67;;;;;;;4.34;92.35;99697.97;5074157;28;20203;-71
2023/12/11 01:04:20;;;;;;;46.43;23.43;;;;;;;4.25;92.03;99692.81;5074552;28;20199;-71
2023/12/11 01:06:47;;;;;;;50.77;25.53;;;;;;;4.12;92.24;99706.31;5074353;28;20287;-71
2023/12/11 01:09:14;;;;;;;46.80;23.57;;;;;;;4.12;92.59;99697.59;5074806;28;20199;-71
2023/12/11 01:11:41;;;;;;;50.83;25.40;;;;;;;4.16;93.92;99680.56;5074705;28;20229;-71
2023/12/11 01:14:08;;;;;;;47.13;24.83;;;;;;;4.10;92.98;99679.38;5074905;28;20191;-71
2023/12/11 01:16:34;;;;;;;56.27;25.90;;;;;;;4.03;93.17;99673.06;5074569;28;20195;-71
2023/12/11 01:19:03;;;;;;;48.20;23.93;;;;;;;4.02;93.67;99666.16;5074618;28;20195;-71
2023/12/11 01:21:29;;;;;;;46.23;23.87;;;;;;;3.94;93.69;99658.19;5074350;28;20188;-71
2023/12/11 01:23:56;;;;;;;48.73;24.47;;;;;;;3.84;93.55;99651.38;5074495;28;20203;-71
2023/12/11 01:26:23;;;;;;;45.67;23.33;;;;;;;3.78;93.82;99652.78;5073563;28;20191;-72
2023/12/11 01:28:50;;;;;;;49.23;24.23;;;;;;;3.76;93.63;99649.47;5074140;28;20195;-71
2023/12/11 01:31:17;;;;;;;48.80;23.27;;;;;;;3.79;93.59;99651.81;5074105;28;20621;-71
2023/12/11 01:33:44;;;;;;;48.30;25.20;;;;;;;3.76;93.22;99649.47;5074327;28;20215;-71
2023/12/11 01:36:12;;;;;;;48.77;23.90;;;;;;;3.66;93.75;99645.25;5073917;28;20206;-72
2023/12/11 01:38:39;;;;;;;57.20;26.23;;;;;;;3.40;93.97;99599.69;5074338;28;20192;-72
2023/12/11 01:41:05;;;;;;;42.70;24.00;;;;;;;3.71;93.68;99643.84;5073800;28;20536;-72
2023/12/11 01:43:32;;;;;;;45.47;24.80;;;;;;;3.71;93.39;99643.84;5074346;28;20434;-72
2023/12/11 01:46:04;;;;;;;51.63;25.30;;;;;;;3.73;94.09;99644.53;5073871;28;20196;-72
2023/12/11 01:48:31;;;;;;;47.03;24.43;;;;;;;3.73;93.58;99647.16;5073840;28;20424;-72
2023/12/11 01:50:59;;;;;;;41.80;23.57;;;;;;;3.70;93.94;99649.25;5073910;28;20192;-72
2023/12/11 01:53:28;;;;;;;48.63;24.03;;;;;;;3.67;94.48;99645.13;5073468;28;20475;-71
2023/12/11 01:55:55;;;;;;;45.83;25.80;;;;;;;3.67;93.62;99646.91;5073989;28;20511;-70
2023/12/11 01:58:24;;;;;;;53.70;24.10;;;;;;;3.63;93.83;99642.94;5074053;28;20446;-71
2023/12/11 02:00:51;;;;;;;44.37;24.03;;;;;;;3.71;93.91;99662.22;5073614;28;20525;-72
2023/12/11 02:03:19;;;;;;;44.80;23.87;;;;;;;3.68;92.61;99657.25;5073208;28;20196;-73
2023/12/11 02:05:46;;;;;;;56.90;25.17;;;;;;;3.70;93.29;99662.38;5073420;28;20199;-71
2023/12/11 02:08:15;;;;;;;43.90;23.93;;;;;;;3.68;92.75;99662.50;5073176;28;20195;-71
2023/12/11 02:10:44;;;;;;;50.20;23.77;;;;;;;3.65;92.52;99657.59;5073557;28;20191;-71
2023/12/11 02:13:11;;;;;;;46.13;24.13;;;;;;;3.65;92.35;99657.59;5072796;28;20223;-71
2023/12/11 02:15:39;;;;;;;50.57;26.40;;;;;;;3.71;93.09;99661.38;5073183;28;20188;-72
2023/12/11 02:18:06;;;;;;;48.10;24.57;;;;;;;3.73;93.27;99659.47;5073603;28;20434;-72
2023/12/11 02:20:33;;;;;;;43.97;22.93;;;;;;;3.73;92.78;99667.34;5073553;28;20191;-72
2023/12/11 02:23:18;;;;;;;46.20;23.97;;;;;;;3.68;93.14;99664.34;5073092;28;20200;-71
2023/12/11 02:25:55;;;;;;;51.17;24.07;;;;;;;3.63;93.09;99672.66;5073565;28;20180;-71
2023/12/11 02:28:23;;;;;;;50.73;23.90;;;;;;;3.55;93.36;99666.50;5073276;28;20613;-71
2023/12/11 02:30:51;;;;;;;49.60;26.70;;;;;;;3.52;93.05;99669.41;5072909;28;20477;-71
2023/12/11 02:33:18;;;;;;;51.90;23.50;;;;;;;3.55;93.60;99667.31;5072802;28;20656;-71
2023/12/11 02:35:45;;;;;;;44.27;22.03;;;;;;;3.48;93.93;99665.44;5073259;28;20435;-72
2023/12/11 02:38:12;;;;;;;50.10;23.07;;;;;;;3.37;93.82;99648.06;5073316;28;20442;-72
2023/12/11 02:40:39;;;;;;;50.73;24.17;;;;;;;3.51;94.35;99665.94;5073215;28;20199;-72
2023/12/11 02:43:06;;;;;;;48.50;23.43;;;;;;;3.45;94.41;99650.78;5073144;28;20758;-72
2023/12/11 02:45:34;;;;;;;49.47;23.70;;;;;;;3.53;94.02;99663.19;5072958;28;20196;-72
2023/12/11 02:48:02;;;;;;;45.73;23.93;;;;;;;3.54;94.30;99662.19;5073259;28;20453;-71
2023/12/11 02:50:29;;;;;;;48.17;24.63;;;;;;;3.53;93.73;99668.44;5072749;28;20831;-70
2023/12/11 02:52:57;;;;;;;47.60;23.60;;;;;;;3.48;93.98;99663.59;5072493;28;20544;-70
2023/12/11 02:55:24;;;;;;;44.03;24.53;;;;;;;3.32;93.41;99639.81;5072769;28;20692;-70
2023/12/11 02:57:51;;;;;;;54.23;24.53;;;;;;;3.46;92.73;99675.22;5072400;28;20798;-71
2023/12/11 03:00:18;;;;;;;48.53;25.20;;;;;;;3.42;93.45;99669.47;5072732;28;20195;-71
2023/12/11 03:02:46;;;;;;;46.97;25.77;;;;;;;3.35;93.13;99675.44;5072740;28;20484;-71
2023/12/11 03:05:13;;;;;;;46.33;24.53;;;;;;;3.35;94.43;99671.00;5072532;28;20442;-72
2023/12/11 03:07:40;;;;;;;50.83;25.43;;;;;;;3.35;94.33;99668.38;5072756;28;20453;-72
2023/12/11 03:10:08;;;;;;;47.73;24.63;;;;;;;3.35;94.68;99667.56;5072702;28;20442;-72
2023/12/11 03:12:35;;;;;;;47.70;25.03;;;;;;;3.27;94.22;99649.91;5072229;28;20481;-72
2023/12/11 03:15:02;;;;;;;46.10;25.00;;;;;;;3.22;93.71;99660.03;5072355;28;20457;-72
2023/12/11 03:17:29;;;;;;;50.47;24.87;;;;;;;2.96;95.07;99659.06;5072454;28;20441;-72
2023/12/11 03:19:59;;;;;;;51.47;25.43;;;;;;;2.95;95.45;99661.81;5071337;28;20438;-73
2023/12/11 03:22:26;;;;;;;49.00;25.27;;;;;;;2.95;96.52;99662.66;5071609;28;20521;-72
2023/12/11 03:24:53;;;;;;;60.47;27.03;;;;;;;2.99;96.57;99669.22;5072189;28;20453;-71
2023/12/11 03:27:20;;;;;;;58.53;26.67;;;;;;;2.85;96.12;99664.47;5071400;28;20972;-72
2023/12/11 03:29:47;;;;;;;50.47;25.93;;;;;;;2.73;96.82;99670.84;5072158;28;20514;-72
2023/12/11 03:32:14;;;;;;;55.63;25.67;;;;;;;2.74;96.62;99671.69;5071207;28;20845;-72
2023/12/11 03:34:41;;;;;;;51.40;25.33;;;;;;;2.73;98.06;99662.97;5071987;28;20520;-72
2023/12/11 03:37:10;;;;;;;55.90;26.77;;;;;;;2.82;98.37;99669.19;5058344;28;20447;-71
2023/12/11 03:39:37;;;;;;;56.57;28.10;;;;;;;2.80;98.07;99669.31;5051300;28;20451;-72
2023/12/11 03:42:04;;;;;;;59.57;27.70;;;;;;;2.82;97.62;99667.38;5051472;28;20446;-72
2023/12/11 03:44:31;;;;;;;51.87;25.87;;;;;;;2.88;97.70;99665.97;5051036;28;20443;-71
2023/12/11 03:46:58;;;;;;;52.97;25.53;;;;;;;2.94;98.17;99668.84;5051437;28;20943;-71
2023/12/11 03:49:27;;;;;;;53.43;26.90;;;;;;;2.96;97.48;99674.78;5051363;28;20497;-71
2023/12/11 03:51:54;;;;;;;56.27;27.50;;;;;;;2.95;96.92;99660.03;5051125;28;20830;-70
2023/12/11 03:54:22;;;;;;;56.10;27.40;;;;;;;3.01;96.19;99667.31;5051149;28;20595;-70
2023/12/11 03:56:49;;;;;;;54.60;25.83;;;;;;;2.98;95.13;99667.59;5050794;28;20797;-70
2023/12/11 03:59:16;;;;;;;56.83;27.17;;;;;;;2.96;94.61;99664.28;5051249;28;20838;-71
2023/12/11 04:01:42;;;;;;;48.43;24.87;;;;;;;2.97;94.54;99665.94;5051234;28;20196;-71
2023/12/11 04:04:09;;;;;;;50.20;24.53;;;;;;;3.00;94.63;99665.66;5051340;28;20843;-71
2023/12/11 04:06:36;;;;;;;59.90;26.37;;;;;;;3.03;95.03;99665.34;5051171;28;20935;-70
2023/12/11 04:09:04;;;;;;;56.23;25.50;;;;;;;2.93;95.90;99669.81;5051133;28;20434;-71
2023/12/11 04:11:32;;;;;;;64.80;28.63;;;;;;;2.76;95.68;99673.19;5050817;28;20438;-71
2023/12/11 04:13:59;;;;;;;52.60;27.27;;;;;;;2.78;95.79;99675.69;5050806;28;20653;-72
2023/12/11 04:16:26;;;;;;;49.87;26.70;;;;;;;2.84;96.21;99681.19;5051133;28;20439;-72
2023/12/11 04:18:53;;;;;;;52.30;25.83;;;;;;;2.82;95.91;99677.84;5051183;28;20447;-72
2023/12/11 04:21:20;;;;;;;57.27;26.27;;;;;;;2.90;95.96;99685.03;5051146;28;20439;-71
2023/12/11 04:23:47;;;;;;;52.83;26.07;;;;;;;2.91;95.79;99687.50;5050765;28;20450;-71
2023/12/11 04:26:14;;;;;;;45.97;26.80;;;;;;;2.82;95.41;99695.41;5050853;28;21228;-72
2023/12/11 04:28:42;;;;;;;50.30;26.83;;;;;;;2.77;96.56;99695.00;5051036;28;20585;-71
2023/12/11 04:31:09;;;;;;;45.23;26.43;;;;;;;2.73;95.46;99694.44;5050125;28;20240;-72
2023/12/11 04:33:37;;;;;;;54.30;25.83;;;;;;;2.73;96.28;99691.81;5050677;28;20544;-72
2023/12/11 04:36:08;;;;;;;56.77;27.43;;;;;;;2.78;95.85;99697.47;5054949;28;20445;-70
2023/12/11 04:38:35;;;;;;;52.23;26.03;;;;;;;2.81;96.35;99707.69;5070979;28;20442;-70
2023/12/11 04:41:02;;;;;;;59.77;27.97;;;;;;;2.79;96.18;99720.13;5070513;28;20438;-70
2023/12/11 04:43:29;;;;;;;69.77;29.17;;;;;;;2.77;95.20;99701.06;5070198;28;20484;-71
2023/12/11 04:45:57;;;;;;;67.53;31.07;;;;;;;2.79;94.22;99722.75;5069775;28;20817;-71
2023/12/11 04:48:24;;;;;;;58.27;29.70;;;;;;;2.78;94.11;99717.63;5069814;28;20430;-72
2023/12/11 04:50:51;;;;;;;69.60;30.97;;;;;;;2.75;94.39;99718.75;5070082;28;20430;-71
2023/12/11 04:53:18;;;;;;;72.47;33.27;;;;;;;2.69;93.86;99714.06;5070212;28;20477;-72
2023/12/11 04:55:44;;;;;;;79.33;33.87;;;;;;;2.70;94.52;99725.38;5070043;28;20438;-71
2023/12/11 04:58:11;;;;;;;60.63;29.20;;;;;;;2.61;94.89;99723.59;5070094;28;20469;-72
2023/12/11 05:00:38;;;;;;;65.07;30.20;;;;;;;2.59;94.89;99729.00;5069951;28;20905;-71
2023/12/11 05:03:06;;;;;;;63.03;29.97;;;;;;;2.60;94.91;99725.38;5070104;28;20438;-70
2023/12/11 05:05:34;;;;;;;84.37;31.33;;;;;;;2.57;94.18;99715.19;5069692;28;20433;-71
2023/12/11 05:08:01;;;;;;;66.77;31.07;;;;;;;2.59;94.93;99718.50;5069722;28;20442;-71
2023/12/11 05:10:28;;;;;;;54.90;30.27;;;;;;;2.61;94.79;99713.13;5069908;28;20438;-70
2023/12/11 05:12:54;;;;;;;64.47;29.07;;;;;;;2.47;94.03;99711.75;5069879;28;20507;-71
2023/12/11 05:15:22;;;;;;;71.17;30.33;;;;;;;2.45;95.49;99716.28;5070389;28;20453;-72
2023/12/11 05:17:49;;;;;;;61.50;30.93;;;;;;;2.35;95.07;99709.41;5070100;28;20441;-72
2023/12/11 05:20:18;;;;;;;58.77;29.90;;;;;;;2.26;94.85;99705.84;5070061;28;20446;-72
2023/12/11 05:22:45;;;;;;;58.10;28.70;;;;;;;2.25;95.86;99704.16;5070303;28;20437;-72
2023/12/11 05:25:13;;;;;;;59.40;30.30;;;;;;;2.26;96.57;99705.00;5070062;28;20512;-72
2023/12/11 05:27:39;;;;;;;66.20;29.80;;;;;;;2.28;95.83;99709.13;5070044;28;20446;-72
2023/12/11 05:30:08;;;;;;;67.30;31.57;;;;;;;2.32;96.36;99699.22;5069245;28;21006;-71
2023/12/11 05:32:35;;;;;;;68.37;29.67;;;;;;;2.28;95.81;99701.28;5069955;28;20434;-70
2023/12/11 05:35:03;;;;;;;59.50;29.93;;;;;;;2.25;95.21;99698.09;5069268;28;20474;-71
2023/12/11 05:37:31;;;;;;;64.77;32.87;;;;;;;2.24;94.84;99694.66;5071209;28;20454;-71
2023/12/11 05:39:58;;;;;;;66.63;35.13;;;;;;;2.12;95.24;99702.81;5068838;28;20438;-71
2023/12/11 05:42:25;;;;;;;63.97;31.70;;;;;;;2.11;96.61;99691.50;5069720;28;20454;-71
2023/12/11 05:44:52;;;;;;;62.30;28.27;;;;;;;2.18;96.22;99703.09;5072306;28;20441;-71
2023/12/11 05:47:18;;;;;;;55.37;29.27;;;;;;;2.03;96.59;99683.50;5069676;28;20452;-71
2023/12/11 05:49:45;;;;;;;62.03;30.07;;;;;;;2.11;97.44;99691.50;5072684;28;20438;-70
2023/12/11 05:52:12;;;;;;;64.97;30.30;;;;;;;2.15;97.01;99695.50;5072257;28;20457;-71
2023/12/11 05:54:40;;;;;;;71.47;29.27;;;;;;;2.18;97.74;99702.25;5073273;28;20845;-70
2023/12/11 05:57:07;;;;;;;65.47;30.47;;;;;;;2.25;97.60;99698.91;5061125;28;20195;-71
2023/12/11 05:59:34;;;;;;;68.63;31.30;;;;;;;2.27;96.81;99691.75;5073937;28;20438;-67
2023/12/11 06:02:01;;;;;;;65.40;30.93;;;;;;;2.23;96.20;99695.63;5073102;28;20446;-67
2023/12/11 06:04:28;;;;;;;68.20;33.17;;;;;;;2.18;97.12;99695.22;5068543;28;20854;-67
2023/12/11 06:06:55;;;;;;;81.20;37.03;;;;;;;2.10;97.05;99709.97;5072209;28;20441;-67
2023/12/11 06:09:21;;;;;;;76.00;32.63;;;;;;;2.15;98.11;99707.75;5069957;28;20977;-72
2023/12/11 06:11:50;;;;;;;73.17;35.53;;;;;;;2.27;97.78;99712.72;5071320;28;20434;-70
2023/12/11 06:14:16;;;;;;;82.43;35.33;;;;;;;2.37;98.70;99710.91;5067623;28;20474;-71
2023/12/11 06:16:43;;;;;;;77.30;41.20;;;;;;;2.45;98.28;99700.56;5063258;28;20434;-70
2023/12/11 06:19:10;;;;;;;89.67;40.43;;;;;;;2.51;98.07;99710.50;5067269;28;20445;-70
2023/12/11 06:21:38;;;;;;;84.77;37.47;;;;;;;2.51;97.49;99721.00;5062741;28;20461;-69
2023/12/11 06:24:06;;;;;;;76.77;33.50;;;;;;;2.64;98.65;99721.53;5067256;28;20545;-71
2023/12/11 06:26:35;;;;;;;81.30;37.90;;;;;;;2.84;98.71;99720.53;5066165;28;21059;-72
2023/12/11 06:29:03;;;;;;;89.53;40.07;;;;;;;3.04;98.50;99716.88;5067876;28;20715;-72
2023/12/11 06:31:31;;;;;;;122.87;42.77;;;;;;;3.25;98.09;99714.84;5066059;28;20473;-73
2023/12/11 06:33:57;;;;;;;86.00;40.33;;;;;;;3.42;97.20;99708.00;5067455;28;20501;-74
2023/12/11 06:36:25;;;;;;;89.33;43.23;;;;;;;3.65;98.03;99712.72;5070577;28;20267;-75
2023/12/11 06:38:52;;;;;;;110.10;47.20;;;;;;;3.85;97.31;99710.81;5067268;28;20196;-77
2023/12/11 06:41:19;;;;;;;118.30;56.67;;;;;;;4.03;94.51;99720.38;5065910;28;20211;-75
2023/12/11 06:43:49;;;;;;;117.53;59.83;;;;;;;4.29;95.35;99716.00;5067603;28;20446;-72
2023/12/11 06:46:17;;;;;;;119.87;63.47;;;;;;;4.56;94.37;99712.44;5067947;28;20192;-76
2023/12/11 06:48:44;;;;;;;99.93;54.23;;;;;;;4.75;93.03;99715.72;5070468;28;20270;-75
2023/12/11 06:51:11;;;;;;;86.43;47.17;;;;;;;5.00;89.60;99733.34;5071080;28;20196;-77
2023/12/11 06:53:38;;;;;;;106.90;49.70;;;;;;;5.03;89.15;99714.59;5071026;28;20220;-76
2023/12/11 06:56:05;;;;;;;84.17;41.00;;;;;;;5.44;90.47;99732.25;5068796;28;20218;-78
2023/12/11 06:58:32;;;;;;;98.10;52.87;;;;;;;5.61;89.73;99707.63;5069468;28;20192;-77
2023/12/11 07:01:00;;;;;;;79.07;39.83;;;;;;;6.01;89.84;99729.84;5070449;28;20180;-77
2023/12/11 07:03:29;;;;;;;61.43;31.93;;;;;;;6.40;88.73;99736.19;5071162;28;20637;-73
2023/12/11 07:05:56;;;;;;;63.93;34.90;;;;;;;6.63;83.36;99753.03;5070090;28;20196;-73
2023/12/11 07:08:23;;;;;;;58.87;32.47;;;;;;;6.73;83.29;99751.06;5072613;28;20191;-74
2023/12/11 07:10:50;;;;;;;61.30;29.47;;;;;;;6.97;84.31;99751.03;5068411;28;20198;-74
2023/12/11 07:13:16;;;;;;;61.93;30.83;;;;;;;7.27;82.38;99758.25;5069338;28;20211;-73
2023/12/11 07:15:43;;;;;;;59.83;29.23;;;;;;;7.26;78.93;99767.19;5070337;28;20208;-73
2023/12/11 07:18:13;;;;;;;53.00;30.97;;;;;;;7.45;77.71;99780.00;5071442;28;20629;-71
2023/12/11 07:20:41;;;;;;;59.97;30.40;;;;;;;7.50;77.58;99769.75;5070916;28;20678;-74
2023/12/11 07:23:10;;;;;;;58.00;28.30;;;;;;;7.64;77.99;99771.69;5069876;28;20191;-73
2023/12/11 07:25:36;;;;;;;50.37;28.23;;;;;;;7.85;78.72;99764.00;5071557;28;20191;-73
2023/12/11 07:28:03;;;;;;;51.33;27.47;;;;;;;8.15;78.58;99765.84;5069282;28;20199;-73
2023/12/11 07:30:30;;;;;;;58.37;28.03;;;;;;;8.40;75.48;99780.59;5063400;28;20227;-74
2023/12/11 07:32:57;;;;;;;49.00;26.73;;;;;;;8.34;72.41;99791.91;5069991;28;20203;-72
2023/12/11 07:35:25;;;;;;;58.93;28.30;;;;;;;8.37;74.98;99768.53;5070705;28;20219;-73
2023/12/11 07:37:53;;;;;;;52.17;28.70;;;;;;;8.44;72.06;99788.03;5071857;28;20192;-73
2023/12/11 07:40:20;;;;;;;69.73;37.80;;;;;;;8.46;71.98;99775.41;5067964;28;20225;-73
2023/12/11 07:42:47;;;;;;;59.10;33.20;;;;;;;8.50;74.13;99773.25;5068862;28;20203;-73
2023/12/11 07:45:15;;;;;;;46.63;27.67;;;;;;;8.57;73.70;99755.66;5067712;28;20199;-73
2023/12/11 07:47:41;;;;;;;53.30;28.13;;;;;;;8.91;73.26;99769.31;5069963;28;20192;-69
2023/12/11 07:50:09;;;;;;;51.43;28.23;;;;;;;9.53;78.62;99758.25;5066306;28;20819;-68
2023/12/11 07:52:36;;;;;;;53.13;28.50;;;;;;;9.71;72.34;99777.25;5068831;28;20199;-69
2023/12/11 07:55:05;;;;;;;49.27;26.23;;;;;;;9.62;67.12;99790.78;5068560;28;20215;-69
2023/12/11 07:57:32;;;;;;;51.20;26.97;;;;;;;9.54;69.41;99782.94;5068308;28;20196;-66
2023/12/11 07:59:59;;;;;;;46.50;27.10;;;;;;;9.58;69.64;99768.28;5068981;28;20188;-68
2023/12/11 08:02:25;;;;;;;46.57;26.73;;;;;;;9.72;69.56;99773.59;5067375;28;20894;-66
2023/12/11 08:04:52;;;;;;;53.80;27.73;;;;;;;9.83;67.50;99782.91;5074857;28;20196;-66
2023/12/11 08:07:19;;;;;;;49.93;28.00;;;;;;;9.83;67.13;99772.31;5081703;28;20210;-65
2023/12/11 08:09:46;;;;;;;54.77;27.93;;;;;;;9.98;67.17;99786.38;5085693;28;20195;-66
2023/12/11 08:12:14;;;;;;;48.43;27.83;;;;;;;10.09;66.49;99783.31;5072694;28;20202;-67
2023/12/11 08:14:41;;;;;;;48.43;28.57;;;;;;;10.20;66.24;99790.78;5074608;28;20220;-66
2023/12/11 08:17:08;;;;;;;48.73;27.80;;;;;;;10.29;65.79;99792.31;5068880;28;20299;-67
2023/12/11 08:19:34;;;;;;;49.63;28.23;;;;;;;10.47;65.65;99790.06;5069453;28;20200;-65
2023/12/11 08:22:01;;;;;;;55.77;29.17;;;;;;;10.65;64.72;99790.44;5069879;28;20203;-66
2023/12/11 08:24:28;;;;;;;50.03;27.77;;;;;;;10.82;64.55;99781.22;5069207;28;20211;-66
2023/12/11 08:26:55;;;;;;;51.13;29.20;;;;;;;11.01;66.99;99775.25;5070456;28;20196;-66
2023/12/11 08:29:25;;;;;;;51.73;28.13;;;;;;;11.37;64.00;99786.59;5069172;28;20296;-68
2023/12/11 08:31:52;;;;;;;50.77;28.40;;;;;;;11.49;62.29;99781.56;5069638;28;20224;-69
2023/12/11 08:34:20;;;;;;;51.07;28.63;;;;;;;11.45;60.99;99788.28;5069904;28;20225;-67
2023/12/11 08:36:47;;;;;;;50.57;29.33;;;;;;;11.49;61.49;99795.69;5069979;28;20632;-67
2023/12/11 08:39:13;;;;;;;51.10;27.80;;;;;;;11.41;59.92;99787.84;5084921;28;21022;-68
2023/12/11 08:41:40;;;;;;;53.83;30.40;;;;;;;11.41;60.17;99785.19;5090228;28;20514;-67
2023/12/11 08:44:07;;;;;;;52.80;29.37;;;;;;;11.54;61.22;99781.78;5090440;28;20195;-69
2023/12/11 08:46:36;;;;;;;52.43;30.57;;;;;;;11.57;59.10;99781.41;5089535;28;20193;-69
2023/12/11 08:49:03;;;;;;;51.60;29.47;;;;;;;11.60;60.92;99776.53;5090007;28;20668;-68
2023/12/11 08:51:30;;;;;;;56.47;31.20;;;;;;;11.69;60.63;99782.53;5069666;28;20201;-70
2023/12/11 08:53:57;;;;;;;56.63;32.53;;;;;;;11.83;60.50;99779.75;5062774;28;20594;-71
2023/12/11 08:56:24;;;;;;;55.60;30.80;;;;;;;12.03;59.29;99772.69;5069519;28;20286;-67
2023/12/11 08:58:51;;;;;;;55.43;31.77;;;;;;;11.92;57.67;99769.78;5070171;28;20658;-69
2023/12/11 09:01:18;;;;;;;57.60;30.60;;;;;;;11.56;60.12;99753.97;5068853;28;20191;-69
2023/12/11 09:03:47;;;;;;;57.60;31.07;;;;;;;11.14;61.10;99746.13;5068843;28;20677;-69
2023/12/11 09:06:14;;;;;;;54.90;30.07;;;;;;;11.17;61.46;99752.88;5069054;28;20614;-70
2023/12/11 09:08:41;;;;;;;57.43;28.73;;;;;;;11.22;60.89;99753.94;5068924;28;20592;-68
2023/12/11 09:11:08;;;;;;;59.47;30.77;;;;;;;11.33;61.65;99739.28;5069654;28;20198;-69
2023/12/11 09:13:35;;;;;;;55.17;31.30;;;;;;;11.45;60.63;99735.91;5069008;28;20668;-69
2023/12/11 09:16:03;;;;;;;57.00;30.80;;;;;;;11.63;60.42;99744.22;5068661;28;20224;-70
2023/12/11 09:18:30;;;;;;;55.63;30.63;;;;;;;11.75;59.60;99736.50;5069323;28;20209;-68
2023/12/11 09:20:58;;;;;;;62.70;32.13;;;;;;;11.81;58.81;99728.56;5073902;28;20197;-68
2023/12/11 09:23:25;;;;;;;64.47;35.27;;;;;;;11.57;59.32;99729.03;5073301;28;20209;-67
2023/12/11 09:25:52;;;;;;;55.93;31.93;;;;;;;11.29;61.94;99714.94;5072628;28;20554;-67
2023/12/11 09:28:19;;;;;;;56.83;32.33;;;;;;;11.02;62.28;99712.31;5060439;28;20202;-67
2023/12/11 09:30:46;;;;;;;68.80;35.40;;;;;;;11.01;64.01;99714.13;5067642;28;20668;-69
2023/12/11 09:33:13;;;;;;;63.97;34.10;;;;;;;11.17;62.56;99713.00;5073717;28;20201;-68
2023/12/11 09:35:41;;;;;;;63.53;33.70;;;;;;;11.31;61.87;99715.56;5079220;28;20240;-67
2023/12/11 09:38:10;;;;;;;61.83;33.70;;;;;;;11.49;61.04;99707.91;5073228;28;20193;-68
2023/12/11 09:40:37;;;;;;;79.67;40.33;;;;;;;11.61;60.86;99702.88;5072223;28;20198;-67
2023/12/11 09:43:04;;;;;;;62.73;32.47;;;;;;;11.39;61.23;99693.31;5073085;28;20624;-67
2023/12/11 09:45:32;;;;;;;61.63;30.70;;;;;;;11.13;64.08;99680.69;5073792;28;20202;-69
2023/12/11 09:47:59;;;;;;;53.33;30.20;;;;;;;11.41;63.53;99700.09;5072222;28;20837;-67
2023/12/11 09:50:26;;;;;;;55.53;29.40;;;;;;;11.63;62.04;99685.69;5073152;28;20201;-67
2023/12/11 09:52:55;;;;;;;61.00;29.07;;;;;;;11.80;60.99;99686.97;5071788;28;20197;-68
2023/12/11 09:55:23;;;;;;;49.23;28.23;;;;;;;11.68;61.68;99693.91;5072034;28;20584;-70
2023/12/11 09:57:51;;;;;;;57.37;29.70;;;;;;;11.70;60.73;99691.88;5072145;28;20562;-66
2023/12/11 10:00:19;;;;;;;52.40;29.13;;;;;;;11.84;61.54;99690.88;5071669;28;20586;-69
2023/12/11 10:02:50;;;;;;;50.00;27.37;;;;;;;11.80;61.34;99686.19;5073135;28;20210;-67
2023/12/11 10:05:24;;;;;;;50.43;27.17;;;;;;;11.44;61.87;99665.13;5071397;28;20433;-67
2023/12/11 10:07:51;;;;;;;48.67;26.23;;;;;;;11.47;62.30;99680.66;5071837;28;20576;-67
2023/12/11 10:10:25;;;;;;;47.53;25.03;;;;;;;11.57;62.29;99664.34;5070399;28;20197;-70
2023/12/11 10:12:53;;;;;;;43.20;23.73;;;;;;;11.81;61.77;99671.84;5070942;28;20273;-67
2023/12/11 10:15:22;;;;;;;38.93;23.93;;;;;;;11.94;59.78;99683.38;5071973;28;20219;-70
2023/12/11 10:18:00;;;;;;;39.10;23.17;;;;;;;11.67;60.58;99673.63;5070612;28;20202;-68
2023/12/11 10:20:27;;;;;;;41.47;24.20;;;;;;;11.28;62.09;99665.44;5071517;28;20248;-67
2023/12/11 10:22:54;;;;;;;43.37;24.43;;;;;;;11.27;62.58;99663.78;5072140;28;20206;-70
2023/12/11 10:25:26;;;;;;;42.37;23.93;;;;;;;11.32;63.17;99665.88;5072828;28;20274;-71
2023/12/11 10:28:06;;;;;;;45.67;24.10;;;;;;;11.48;62.58;99650.41;5071692;28;20203;-75
2023/12/11 10:30:33;;;;;;;42.50;24.37;;;;;;;11.61;61.93;99655.81;5070989;28;20626;-74
2023/12/11 10:33:03;;;;;;;45.00;24.07;;;;;;;11.78;61.27;99646.47;5072661;28;20197;-72
2023/12/11 10:35:30;;;;;;;42.77;24.10;;;;;;;11.94;60.75;99648.75;5071451;28;20225;-73
2023/12/11 10:38:01;;;;;;;39.57;23.53;;;;;;;12.02;60.65;99640.59;5072189;28;20257;-74
2023/12/11 10:40:38;;;;;;;39.57;22.23;;;;;;;12.07;60.76;99630.16;5072429;28;20195;-73
2023/12/11 10:43:06;;;;;;;44.77;25.23;;;;;;;12.07;59.71;99624.81;5064713;28;20190;-77
2023/12/11 10:45:34;;;;;;;38.30;22.20;;;;;;;12.07;60.64;99614.19;5072108;28;20203;-73
2023/12/11 10:48:03;;;;;;;35.40;21.57;;;;;;;12.16;60.12;99612.16;5071860;28;20252;-73
2023/12/11 10:50:30;;;;;;;36.53;21.43;;;;;;;12.34;58.96;99607.88;5070746;28;20195;-75
2023/12/11 10:52:59;;;;;;;35.23;20.73;;;;;;;12.52;59.78;99600.06;5070125;28;20194;-75
2023/12/11 10:55:26;;;;;;;37.23;20.83;;;;;;;12.74;59.80;99590.00;5075843;28;20237;-75
2023/12/11 10:57:54;;;;;;;45.87;26.30;;;;;;;13.01;58.01;99592.44;5072878;28;20207;-79
2023/12/11 11:00:21;;;;;;;41.77;24.43;;;;;;;13.13;57.26;99590.78;5070831;28;20216;-71
2023/12/11 11:02:53;;;;;;;52.93;26.33;;;;;;;13.10;55.87;99591.19;5071561;28;20188;-70
2023/12/11 11:05:21;;;;;;;51.00;27.23;;;;;;;13.16;56.45;99585.03;5071066;28;20202;-71
2023/12/11 11:07:57;;;;;;;49.30;26.77;;;;;;;13.20;56.08;99583.56;5069922;28;20246;-72
2023/12/11 11:10:32;;;;;;;46.57;25.90;;;;;;;13.18;56.45;99576.78;5076324;28;20195;-73
2023/12/11 11:13:06;;;;;;;42.80;24.40;;;;;;;13.13;56.30;99577.44;5080150;28;20179;-72
2023/12/11 11:15:33;;;;;;;47.93;24.73;;;;;;;13.16;56.17;99573.53;5069827;28;20278;-73
2023/12/11 11:18:01;;;;;;;52.07;27.70;;;;;;;12.80;58.27;99573.19;5068813;28;20249;-73
2023/12/11 11:20:28;;;;;;;64.90;30.10;;;;;;;12.76;58.49;99571.94;5070140;28;20213;-75
2023/12/11 11:23:21;;;;;;;53.13;26.67;;;;;;;12.75;59.36;99571.16;5070746;28;20192;-75